createdAt,value
2019-02-14T00:00:38.718Z,-0.79
2019-02-14T00:03:08.930Z,-0.77
2019-02-14T00:05:39.194Z,-0.77
2019-02-14T00:08:09.376Z,-0.90
2019-02-14T00:10:39.617Z,-1.05
2019-02-14T00:13:09.844Z,-0.94
2019-02-14T00:15:40.090Z,-1.02
2019-02-14T00:18:12.628Z,-0.97
2019-02-14T00:20:42.879Z,-0.92
2019-02-14T00:23:14.037Z,-0.98
2019-02-14T00:25:44.298Z,-0.98
2019-02-14T00:28:14.435Z,-1.13
2019-02-14T00:30:44.610Z,-1.17
2019-02-14T00:33:15.590Z,-1.11
2019-02-14T00:35:45.938Z,-1.14
2019-02-14T00:38:16.121Z,-1.17
2019-02-14T00:43:28.611Z,-1.07
2019-02-14T00:45:58.823Z,-1.10
2019-02-14T00:48:29.070Z,-1.16
2019-02-14T00:50:59.262Z,-1.16
2019-02-14T00:53:29.439Z,-1.20
2019-02-14T00:55:59.563Z,-1.23
2019-02-14T00:58:29.691Z,-1.27
2019-02-14T01:00:59.874Z,-1.17
2019-02-14T01:03:30.103Z,-1.28
2019-02-14T01:06:00.275Z,-1.32
2019-02-14T01:08:30.498Z,-1.34
2019-02-14T01:11:00.687Z,-1.23
2019-02-14T01:13:30.923Z,-1.32
2019-02-14T01:16:01.127Z,-1.33
2019-02-14T01:18:31.294Z,-1.33
2019-02-14T01:21:01.430Z,-1.36
2019-02-14T01:23:31.666Z,-1.34
2019-02-14T01:26:01.862Z,-1.40
2019-02-14T01:28:32.120Z,-1.46
2019-02-14T01:31:02.157Z,-1.39
2019-02-14T01:33:33.172Z,-1.35
2019-02-14T01:36:03.491Z,-1.34
2019-02-14T01:38:33.673Z,-1.37
2019-02-14T01:41:03.916Z,-1.26
2019-02-14T01:43:33.965Z,-1.36
2019-02-14T01:46:04.204Z,-1.46
2019-02-14T01:48:34.338Z,-1.40
2019-02-14T01:51:04.468Z,-1.41
2019-02-14T01:53:34.571Z,-1.41
2019-02-14T01:56:04.829Z,-1.31
2019-02-14T01:58:35.032Z,-1.34
2019-02-14T02:01:05.285Z,-1.44
2019-02-14T02:03:35.470Z,-1.43
2019-02-14T02:06:05.718Z,-1.50
2019-02-14T02:08:35.929Z,-1.58
2019-02-14T02:11:06.475Z,-1.52
2019-02-14T02:13:36.602Z,-1.63
2019-02-14T02:16:06.850Z,-1.75
2019-02-14T02:18:38.630Z,-1.66
2019-02-14T02:21:08.904Z,-1.76
2019-02-14T02:23:39.095Z,-1.71
2019-02-14T02:26:09.331Z,-1.71
2019-02-14T02:28:39.550Z,-1.80
2019-02-14T02:31:09.823Z,-1.87
2019-02-14T02:33:40.821Z,-1.83
2019-02-14T02:36:11.153Z,-1.87
2019-02-14T02:38:41.348Z,-1.76
2019-02-14T02:41:11.628Z,-1.79
2019-02-14T02:43:41.826Z,-1.88
2019-02-14T02:46:12.017Z,-1.91
2019-02-14T02:48:42.216Z,-1.97
2019-02-14T02:51:12.488Z,-2.06
2019-02-14T02:53:42.687Z,-2.06
2019-02-14T02:56:12.939Z,-2.11
2019-02-14T02:58:43.153Z,-2.07
2019-02-14T03:01:13.413Z,-2.04
2019-02-14T03:03:43.533Z,-2.05
2019-02-14T03:06:13.703Z,-2.06
2019-02-14T03:08:43.827Z,-2.11
2019-02-14T03:11:13.979Z,-2.12
2019-02-14T03:13:44.120Z,-2.16
2019-02-14T03:16:14.368Z,-2.26
2019-02-14T03:18:44.557Z,-2.32
2019-02-14T03:21:14.795Z,-2.31
2019-02-14T03:23:44.939Z,-2.22
2019-02-14T03:26:15.122Z,-2.36
2019-02-14T03:28:45.327Z,-2.34
2019-02-14T03:31:15.499Z,-2.27
2019-02-14T03:33:46.556Z,-2.29
2019-02-14T03:36:19.221Z,-2.27
2019-02-14T03:38:48.672Z,-2.25
2019-02-14T03:41:18.852Z,-2.24
2019-02-14T03:43:48.994Z,-2.26
2019-02-14T03:46:19.227Z,-2.25
2019-02-14T03:48:49.430Z,-2.26
2019-02-14T03:51:19.651Z,-2.27
2019-02-14T03:53:49.852Z,-2.34
2019-02-14T03:56:19.966Z,-2.31
2019-02-14T03:58:50.091Z,-2.30
2019-02-14T04:01:20.350Z,-2.32
2019-02-14T04:03:50.550Z,-2.31
2019-02-14T04:06:27.167Z,-2.36
2019-02-14T04:08:52.708Z,-2.34
2019-02-14T04:11:22.969Z,-2.22
2019-02-14T04:13:53.198Z,-2.20
2019-02-14T04:16:23.443Z,-2.26
2019-02-14T04:18:53.665Z,-2.21
2019-02-14T04:21:23.919Z,-2.20
2019-02-14T04:23:54.146Z,-2.09
2019-02-14T04:26:24.397Z,-2.21
2019-02-14T04:28:54.615Z,-2.26
2019-02-14T04:31:24.882Z,-2.19
2019-02-14T04:33:56.073Z,-2.47
2019-02-14T04:36:26.387Z,-2.44
2019-02-14T04:38:56.595Z,-2.47
2019-02-14T04:41:26.778Z,-2.48
2019-02-14T04:43:57.004Z,-2.49
2019-02-14T04:46:27.169Z,-2.39
2019-02-14T04:48:57.360Z,-2.42
2019-02-14T04:51:27.625Z,-2.39
2019-02-14T04:53:57.948Z,-2.30
2019-02-14T04:56:28.203Z,-2.27
2019-02-14T04:58:58.414Z,-2.27
2019-02-14T05:01:28.667Z,-2.27
2019-02-14T05:03:58.852Z,-2.24
2019-02-14T05:06:29.113Z,-2.33
2019-02-14T05:08:59.294Z,-2.33
2019-02-14T05:11:29.477Z,-2.33
2019-02-14T05:13:59.679Z,-2.32
2019-02-14T05:16:29.937Z,-2.17
2019-02-14T05:19:00.131Z,-2.22
2019-02-14T05:21:30.384Z,-2.16
2019-02-14T05:24:00.582Z,-2.09
2019-02-14T05:26:30.770Z,-2.06
2019-02-14T05:29:00.950Z,-1.98
2019-02-14T05:31:31.406Z,-1.80
2019-02-14T05:34:02.439Z,-1.68
2019-02-14T05:36:32.673Z,-1.57
2019-02-14T05:39:03.486Z,-1.49
2019-02-14T05:41:33.741Z,-1.46
2019-02-14T05:44:03.923Z,-1.18
2019-02-14T05:46:34.154Z,-1.17
2019-02-14T05:49:04.333Z,-1.15
2019-02-14T05:51:34.589Z,-1.02
2019-02-14T05:54:04.698Z,-1.14
2019-02-14T05:56:34.961Z,-1.12
2019-02-14T05:59:05.055Z,-1.05
2019-02-14T06:01:35.321Z,-0.75
2019-02-14T06:04:05.496Z,-0.74
2019-02-14T06:06:35.668Z,-0.77
2019-02-14T06:09:06.380Z,-0.96
2019-02-14T06:11:36.616Z,-0.68
2019-02-14T06:14:06.854Z,-0.78
2019-02-14T06:16:37.100Z,-0.62
2019-02-14T06:19:07.326Z,-0.86
2019-02-14T06:21:37.578Z,-0.76
2019-02-14T06:24:07.784Z,-0.80
2019-02-14T06:26:38.048Z,-0.86
2019-02-14T06:29:08.246Z,-0.68
2019-02-14T06:31:38.494Z,-0.78
2019-02-14T06:34:09.693Z,-0.66
2019-02-14T06:36:40.020Z,-0.82
2019-02-14T06:39:10.224Z,-0.64
2019-02-14T06:41:40.481Z,-0.57
2019-02-14T06:44:10.710Z,-0.79
2019-02-14T06:46:40.954Z,-0.75
2019-02-14T06:49:11.180Z,-0.62
2019-02-14T06:51:41.455Z,-0.66
2019-02-14T06:54:11.671Z,-0.65
2019-02-14T06:56:41.930Z,-0.72
2019-02-14T06:59:12.131Z,-0.38
2019-02-14T07:01:42.401Z,-0.20
2019-02-14T07:04:12.539Z,-0.13
2019-02-14T07:06:42.764Z,-0.13
2019-02-14T07:09:12.979Z,-0.21
2019-02-14T07:11:43.214Z,-0.01
2019-02-14T07:14:13.447Z,0.23
2019-02-14T07:16:43.672Z,0.21
2019-02-14T07:19:13.814Z,0.07
2019-02-14T07:21:44.050Z,0.20
2019-02-14T07:24:14.240Z,0.46
2019-02-14T07:26:44.473Z,0.33
2019-02-14T07:29:14.656Z,0.54
2019-02-14T07:31:44.913Z,0.56
2019-02-14T07:34:15.966Z,0.48
2019-02-14T07:36:46.795Z,0.84
2019-02-14T07:39:17.627Z,1.18
2019-02-14T07:41:47.869Z,1.25
2019-02-14T07:44:17.996Z,1.39
2019-02-14T07:46:48.170Z,1.22
2019-02-14T07:49:18.354Z,0.99
2019-02-14T07:51:48.772Z,0.92
2019-02-14T07:54:19.058Z,0.83
2019-02-14T07:56:49.198Z,0.82
2019-02-14T07:59:19.384Z,0.76
2019-02-14T08:01:49.631Z,0.81
2019-02-14T08:04:19.836Z,0.99
2019-02-14T08:06:50.094Z,1.14
2019-02-14T08:09:20.257Z,1.52
2019-02-14T08:11:50.520Z,1.56
2019-02-14T08:14:20.614Z,1.33
2019-02-14T08:16:50.915Z,1.88
2019-02-14T08:19:21.137Z,1.97
2019-02-14T08:21:52.898Z,1.94
2019-02-14T08:24:23.116Z,2.14
2019-02-14T08:26:53.401Z,1.90
2019-02-14T08:29:25.061Z,2.23
2019-02-14T08:31:55.736Z,2.31
2019-02-14T08:34:28.521Z,2.44
2019-02-14T08:36:59.222Z,2.29
2019-02-14T08:39:29.594Z,2.02
2019-02-14T08:41:59.872Z,1.98
2019-02-14T08:44:30.058Z,2.04
2019-02-14T08:47:00.300Z,2.23
2019-02-14T08:49:30.507Z,2.70
2019-02-14T08:52:00.767Z,2.51
2019-02-14T08:54:30.991Z,2.40
2019-02-14T08:57:01.181Z,2.68
2019-02-14T08:59:31.606Z,2.63
2019-02-14T09:02:01.787Z,2.71
2019-02-14T09:04:32.005Z,2.50
2019-02-14T09:07:02.336Z,2.52
2019-02-14T09:09:32.565Z,2.51
2019-02-14T09:12:02.810Z,2.44
2019-02-14T09:14:33.350Z,2.54
2019-02-14T09:17:03.640Z,2.44
2019-02-14T09:19:33.902Z,2.44
2019-02-14T09:22:04.254Z,2.51
2019-02-14T09:24:34.592Z,2.58
2019-02-14T09:27:05.033Z,2.70
2019-02-14T09:29:37.000Z,2.72
2019-02-14T09:32:07.369Z,3.12
2019-02-14T09:34:38.618Z,3.34
2019-02-14T09:37:08.889Z,2.71
2019-02-14T09:39:40.982Z,2.93
2019-02-14T09:42:11.260Z,3.19
2019-02-14T09:44:41.440Z,3.44
2019-02-14T09:47:11.661Z,3.30
2019-02-14T09:49:41.867Z,3.25
2019-02-14T09:52:12.173Z,3.57
2019-02-14T09:54:44.325Z,3.23
2019-02-14T09:57:14.948Z,3.45
2019-02-14T09:59:45.218Z,3.57
2019-02-14T10:02:15.474Z,3.46
2019-02-14T10:04:45.717Z,3.56
2019-02-14T10:07:19.888Z,3.38
2019-02-14T10:09:50.110Z,3.53
2019-02-14T10:12:20.773Z,3.49
2019-02-14T10:14:50.939Z,3.33
2019-02-14T10:17:22.754Z,3.89
2019-02-14T10:19:53.257Z,3.84
2019-02-14T10:22:23.492Z,3.95
2019-02-14T10:24:54.913Z,3.88
2019-02-14T10:27:29.939Z,3.75
2019-02-14T10:30:02.512Z,3.73
2019-02-14T10:32:36.063Z,3.95
2019-02-14T10:35:11.511Z,3.99
2019-02-14T10:37:42.029Z,3.74
2019-02-14T10:40:14.369Z,3.72
2019-02-14T10:42:44.800Z,3.48
2019-02-14T10:45:23.052Z,4.04
2019-02-14T10:47:53.344Z,3.97
2019-02-14T10:50:24.544Z,3.93
2019-02-14T10:52:54.799Z,4.18
2019-02-14T10:55:25.018Z,4.19
2019-02-14T10:57:55.278Z,4.43
2019-02-14T11:00:26.511Z,4.22
2019-02-14T11:02:56.744Z,3.86
2019-02-14T11:05:27.135Z,3.86
2019-02-14T11:07:58.983Z,6.11
2019-02-14T11:10:30.201Z,6.95
2019-02-14T11:13:00.517Z,8.21
2019-02-14T11:15:30.721Z,7.61
2019-02-14T11:18:00.998Z,7.32
2019-02-14T11:20:31.320Z,6.23
2019-02-14T11:23:01.585Z,6.14
2019-02-14T11:25:40.015Z,6.19
2019-02-14T11:28:10.262Z,5.63
2019-02-14T11:30:40.738Z,5.80
2019-02-14T11:33:11.048Z,6.70
2019-02-14T11:35:42.132Z,7.46
2019-02-14T11:38:15.046Z,6.24
2019-02-14T11:40:45.249Z,5.71
2019-02-14T11:43:15.505Z,5.15
2019-02-14T11:45:51.040Z,4.96
2019-02-14T11:48:18.370Z,4.85
2019-02-14T11:50:50.626Z,4.44
2019-02-14T11:53:20.615Z,4.64
2019-02-14T11:55:55.879Z,4.57
2019-02-14T11:58:27.762Z,4.85
2019-02-14T12:00:57.828Z,4.67
2019-02-14T12:03:28.567Z,4.76
2019-02-14T12:05:58.772Z,5.01
2019-02-14T12:08:29.041Z,4.76
2019-02-14T12:10:59.299Z,4.45
2019-02-14T12:13:29.589Z,4.55
2019-02-14T12:15:59.817Z,4.43
2019-02-14T12:18:30.085Z,4.24
2019-02-14T12:21:00.311Z,3.94
2019-02-14T12:23:30.544Z,3.55
2019-02-14T12:26:01.353Z,3.70
2019-02-14T12:28:31.586Z,3.63
2019-02-14T12:31:01.804Z,3.78
2019-02-14T12:33:32.034Z,3.89
2019-02-14T12:36:02.429Z,3.97
2019-02-14T12:38:35.755Z,4.05
2019-02-14T12:41:06.021Z,3.88
2019-02-14T12:43:36.255Z,3.87
2019-02-14T12:46:06.494Z,3.76
2019-02-14T12:48:36.693Z,3.85
2019-02-14T12:51:06.918Z,3.53
2019-02-14T12:53:37.211Z,3.79
2019-02-14T12:56:07.436Z,3.54
2019-02-14T12:58:37.687Z,3.47
2019-02-14T13:01:10.736Z,3.59
2019-02-14T13:03:44.620Z,3.80
2019-02-14T13:06:14.897Z,3.48
2019-02-14T13:08:45.220Z,3.60
2019-02-14T13:11:15.459Z,3.50
2019-02-14T13:13:49.762Z,3.50
2019-02-14T13:16:19.217Z,3.52
2019-02-14T13:18:51.190Z,3.51
2019-02-14T13:21:26.275Z,3.27
2019-02-14T13:23:57.725Z,3.11
2019-02-14T13:26:28.036Z,3.22
2019-02-14T13:28:58.336Z,3.45
2019-02-14T13:31:32.168Z,3.51
2019-02-14T13:34:00.902Z,3.58
2019-02-14T13:36:37.378Z,3.76
2019-02-14T13:39:07.896Z,3.54
2019-02-14T13:41:38.173Z,3.70
2019-02-14T13:44:11.516Z,3.47
2019-02-14T13:46:41.509Z,3.14
2019-02-14T13:49:13.675Z,3.29
2019-02-14T13:51:43.895Z,3.10
2019-02-14T13:54:14.128Z,3.12
2019-02-14T13:56:53.740Z,3.03
2019-02-14T13:59:16.904Z,3.30
2019-02-14T14:01:48.781Z,3.16
2019-02-14T14:04:23.600Z,3.17
2019-02-14T14:06:54.333Z,3.11
2019-02-14T14:09:26.980Z,3.00
2019-02-14T14:12:26.701Z,2.92
2019-02-14T14:15:28.845Z,2.90
2019-02-14T14:18:27.070Z,2.90
2019-02-14T14:21:25.471Z,2.90
2019-02-14T14:24:02.699Z,2.81
2019-02-14T14:26:37.133Z,2.84
2019-02-14T14:29:15.572Z,2.66
2019-02-14T14:31:48.856Z,2.70
2019-02-14T14:34:19.163Z,2.94
2019-02-14T14:36:50.304Z,3.05
2019-02-14T14:39:20.611Z,3.08
2019-02-14T14:41:50.937Z,3.10
2019-02-14T14:44:22.823Z,3.10
2019-02-14T14:46:54.841Z,3.07
2019-02-14T14:49:25.373Z,3.10
2019-02-14T14:51:56.175Z,3.05
2019-02-14T14:54:26.518Z,3.12
2019-02-14T14:56:57.384Z,3.08
2019-02-14T14:59:28.932Z,3.06
2019-02-14T15:02:02.101Z,3.10
2019-02-14T15:04:51.108Z,2.86
2019-02-14T15:07:25.560Z,3.00
2019-02-14T15:09:57.789Z,3.16
2019-02-14T15:12:28.057Z,3.16
2019-02-14T15:14:59.937Z,3.23
2019-02-14T15:17:30.888Z,3.08
2019-02-14T15:20:01.333Z,3.03
2019-02-14T15:22:31.917Z,3.14
2019-02-14T15:25:03.872Z,3.04
2019-02-14T15:27:34.091Z,3.02
2019-02-14T15:30:06.192Z,3.06
2019-02-14T15:32:36.413Z,3.04
2019-02-14T15:35:08.559Z,3.04
2019-02-14T15:37:39.148Z,3.14
2019-02-14T15:40:10.708Z,3.07
2019-02-14T15:42:42.920Z,3.08
2019-02-14T15:45:13.243Z,3.10
2019-02-14T15:47:44.800Z,3.00
2019-02-14T15:50:16.216Z,2.95
2019-02-14T15:52:46.484Z,2.93
2019-02-14T15:55:16.842Z,3.00
2019-02-14T15:57:47.372Z,2.97
2019-02-14T16:00:17.662Z,2.90
2019-02-14T16:02:50.264Z,2.99
2019-02-14T16:05:20.071Z,2.92
2019-02-14T16:07:50.297Z,2.95
2019-02-14T16:10:21.144Z,2.96
2019-02-14T16:12:51.422Z,2.83
2019-02-14T16:15:21.721Z,2.94
2019-02-14T16:17:52.103Z,2.92
2019-02-14T16:20:22.340Z,3.01
2019-02-14T16:22:52.476Z,2.98
2019-02-14T16:25:22.646Z,2.95
2019-02-14T16:27:52.746Z,2.97
2019-02-14T16:30:24.465Z,3.06
2019-02-14T16:32:54.602Z,3.01
2019-02-14T16:35:24.894Z,2.94
2019-02-14T16:37:55.946Z,2.92
2019-02-14T16:40:28.178Z,2.82
2019-02-14T16:42:58.149Z,2.88
2019-02-14T16:45:28.321Z,2.88
2019-02-14T16:47:58.887Z,2.86
2019-02-14T16:50:29.127Z,2.88
2019-02-14T16:52:59.247Z,2.78
2019-02-14T16:55:29.430Z,2.57
2019-02-14T16:57:59.650Z,2.70
2019-02-14T17:00:29.899Z,2.69
2019-02-14T17:03:00.105Z,2.72
2019-02-14T17:05:30.374Z,2.73
2019-02-14T17:08:00.570Z,2.61
2019-02-14T17:10:36.585Z,2.61
2019-02-14T17:13:02.719Z,2.69
2019-02-14T17:15:32.964Z,2.61
2019-02-14T17:18:03.208Z,2.54
2019-02-14T17:20:33.477Z,2.57
2019-02-14T17:23:03.691Z,2.45
2019-02-14T17:25:33.928Z,2.47
2019-02-14T17:28:04.134Z,2.61
2019-02-14T17:30:34.391Z,2.60
2019-02-14T17:33:04.591Z,2.58
2019-02-14T17:35:34.774Z,2.52
2019-02-14T17:38:05.027Z,2.67
2019-02-14T17:40:35.402Z,2.60
2019-02-14T17:43:05.639Z,2.56
2019-02-14T17:45:35.788Z,2.64
2019-02-14T17:48:05.983Z,2.63
2019-02-14T17:50:36.174Z,2.48
2019-02-14T17:53:06.370Z,2.34
2019-02-14T17:55:36.632Z,2.45
2019-02-14T17:58:06.828Z,2.46
2019-02-14T18:00:37.109Z,2.56
2019-02-14T18:03:07.295Z,2.53
2019-02-14T18:05:37.544Z,2.47
2019-02-14T18:08:07.754Z,2.40
2019-02-14T18:10:37.936Z,2.39
2019-02-14T18:13:08.135Z,2.44
2019-02-14T18:15:38.307Z,2.43
2019-02-14T18:18:08.427Z,2.37
2019-02-14T18:20:38.597Z,2.46
2019-02-14T18:23:08.780Z,2.47
2019-02-14T18:25:39.012Z,2.42
2019-02-14T18:28:09.144Z,2.34
2019-02-14T18:30:39.398Z,2.31
2019-02-14T18:33:09.508Z,2.32
2019-02-14T18:35:39.739Z,2.35
2019-02-14T18:38:10.857Z,2.31
2019-02-14T18:40:41.202Z,2.24
2019-02-14T18:43:11.392Z,2.35
2019-02-14T18:45:41.552Z,2.25
2019-02-14T18:48:11.683Z,2.33
2019-02-14T18:50:41.861Z,2.33
2019-02-14T18:53:12.084Z,2.17
2019-02-14T18:55:42.324Z,2.22
2019-02-14T18:58:12.419Z,2.34
2019-02-14T19:00:42.687Z,2.28
2019-02-14T19:03:12.815Z,2.31
2019-02-14T19:05:43.077Z,2.33
2019-02-14T19:08:13.259Z,2.08
2019-02-14T19:10:43.523Z,2.11
2019-02-14T19:13:13.740Z,1.92
2019-02-14T19:15:43.987Z,2.04
2019-02-14T19:18:14.201Z,1.96
2019-02-14T19:20:44.447Z,2.06
2019-02-14T19:23:23.333Z,2.03
2019-02-14T19:25:46.609Z,2.17
2019-02-14T19:28:16.824Z,2.13
2019-02-14T19:30:47.077Z,2.09
2019-02-14T19:33:17.244Z,2.14
2019-02-14T19:35:47.519Z,2.00
2019-02-14T19:38:18.877Z,1.98
2019-02-14T19:40:49.229Z,2.08
2019-02-14T19:43:19.446Z,1.85
2019-02-14T19:45:49.704Z,1.91
2019-02-14T19:48:19.919Z,1.92
2019-02-14T19:50:50.192Z,1.79
2019-02-14T19:53:20.383Z,1.98
2019-02-14T19:55:50.645Z,1.99
2019-02-14T19:58:20.861Z,1.80
2019-02-14T20:00:51.088Z,1.68
2019-02-14T20:03:21.298Z,1.57
2019-02-14T20:05:51.587Z,1.48
2019-02-14T20:08:21.782Z,1.48
2019-02-14T20:10:52.182Z,1.52
2019-02-14T20:13:22.310Z,1.42
2019-02-14T20:15:52.565Z,1.40
2019-02-14T20:18:22.767Z,1.40
2019-02-14T20:20:53.046Z,1.23
2019-02-14T20:23:23.229Z,1.28
2019-02-14T20:25:53.437Z,1.28
2019-02-14T20:28:23.582Z,1.34
2019-02-14T20:30:53.756Z,1.25
2019-02-14T20:33:23.948Z,1.06
2019-02-14T20:35:54.214Z,1.09
2019-02-14T20:38:25.186Z,1.13
2019-02-14T20:40:55.522Z,1.14
2019-02-14T20:43:25.731Z,1.05
2019-02-14T20:45:55.879Z,1.05
2019-02-14T20:48:26.077Z,0.96
2019-02-14T20:50:56.343Z,1.00
2019-02-14T20:53:26.463Z,1.01
2019-02-14T20:55:56.698Z,0.96
2019-02-14T20:58:26.805Z,1.03
2019-02-14T21:00:57.345Z,1.04
2019-02-14T21:03:27.535Z,0.98
2019-02-14T21:05:57.790Z,1.02
2019-02-14T21:08:27.884Z,1.02
2019-02-14T21:10:58.054Z,1.06
2019-02-14T21:13:28.158Z,1.08
2019-02-14T21:15:58.445Z,0.98
2019-02-14T21:18:28.575Z,0.90
2019-02-14T21:20:58.817Z,0.83
2019-02-14T21:23:29.032Z,0.84
2019-02-14T21:25:59.308Z,0.79
2019-02-14T21:28:29.594Z,0.79
2019-02-14T21:30:59.823Z,0.69
2019-02-14T21:33:29.938Z,0.70
2019-02-14T21:36:00.179Z,0.56
2019-02-14T21:38:30.414Z,0.53
2019-02-14T21:41:00.631Z,0.62
2019-02-14T21:43:31.027Z,0.59
2019-02-14T21:46:01.386Z,0.58
2019-02-14T21:48:31.566Z,0.51
2019-02-14T21:51:01.813Z,0.58
2019-02-14T21:53:32.017Z,0.60
2019-02-14T21:56:02.268Z,0.60
2019-02-14T21:58:32.470Z,0.55
2019-02-14T22:01:03.312Z,0.39
2019-02-14T22:03:33.485Z,0.39
2019-02-14T22:06:03.756Z,0.37
2019-02-14T22:08:33.904Z,0.26
2019-02-14T22:11:04.153Z,0.29
2019-02-14T22:13:34.289Z,0.20
2019-02-14T22:16:05.037Z,0.23
2019-02-14T22:18:35.234Z,0.02
2019-02-14T22:21:05.403Z,-0.04
2019-02-14T22:23:35.587Z,-0.10
2019-02-14T22:26:05.757Z,-0.13
2019-02-14T22:28:35.902Z,-0.16
2019-02-14T22:31:06.056Z,-0.19
2019-02-14T22:33:36.268Z,-0.35
2019-02-14T22:36:06.578Z,-0.35
2019-02-14T22:38:36.842Z,-0.80
2019-02-14T22:41:07.174Z,-0.76
2019-02-14T22:43:37.292Z,-0.67
2019-02-14T22:46:07.534Z,-0.66
2019-02-14T22:48:37.733Z,-0.87
2019-02-14T22:51:07.900Z,-0.93
2019-02-14T22:53:38.024Z,-0.87
2019-02-14T22:56:08.256Z,-0.81
2019-02-14T22:58:38.379Z,-0.82
2019-02-14T23:01:08.649Z,-0.78
2019-02-14T23:03:38.847Z,-0.79
2019-02-14T23:06:09.020Z,-0.69
2019-02-14T23:08:39.134Z,-0.70
2019-02-14T23:11:09.398Z,-0.76
2019-02-14T23:13:39.514Z,-0.87
2019-02-14T23:16:09.706Z,-0.83
2019-02-14T23:18:39.906Z,-0.84
2019-02-14T23:21:10.074Z,-0.84
2019-02-14T23:23:40.288Z,-0.95
2019-02-14T23:26:10.537Z,-0.85
2019-02-14T23:28:40.752Z,-0.83
2019-02-14T23:31:11.012Z,-0.82
2019-02-14T23:33:41.217Z,-0.81
2019-02-14T23:36:11.477Z,-0.72
2019-02-14T23:38:42.569Z,-0.83
2019-02-14T23:41:12.886Z,-0.82
2019-02-14T23:43:43.065Z,-0.94
2019-02-14T23:46:13.301Z,-1.06
2019-02-14T23:48:43.506Z,-1.08
2019-02-14T23:51:13.750Z,-1.14
2019-02-14T23:53:43.882Z,-1.01
2019-02-14T23:56:14.145Z,-1.07
2019-02-14T23:58:44.327Z,-1.01
